createdAt,value
2023-01-03T00:04:56.962Z,6.61
2023-01-03T00:09:58.293Z,6.62
2023-01-03T00:14:59.129Z,6.64
2023-01-03T00:20:00.365Z,6.64
2023-01-03T00:25:01.898Z,6.61
2023-01-03T00:30:03.397Z,6.38
2023-01-03T00:35:05.624Z,6.43
2023-01-03T00:40:07.280Z,6.29
2023-01-03T00:45:10.612Z,6.27
2023-01-03T00:50:11.596Z,6.32
2023-01-03T00:55:12.310Z,6.34
2023-01-03T01:00:13.608Z,6.41
2023-01-03T01:05:14.350Z,6.41
2023-01-03T01:10:18.712Z,6.56
2023-01-03T01:15:19.565Z,6.60
2023-01-03T01:20:20.758Z,6.45
2023-01-03T01:25:21.472Z,6.49
2023-01-03T01:30:22.678Z,6.46
2023-01-03T01:35:23.415Z,6.42
2023-01-03T01:40:24.245Z,6.38
2023-01-03T01:45:24.960Z,6.33
2023-01-03T01:50:55.245Z,6.23
2023-01-03T01:56:21.136Z,5.99
2023-01-03T02:01:23.644Z,5.98
2023-01-03T02:06:24.534Z,5.82
2023-01-03T02:12:30.134Z,5.82
2023-01-03T02:19:23.464Z,5.70
2023-01-03T02:24:53.923Z,5.66
2023-01-03T02:30:47.647Z,5.64
2023-01-03T02:36:00.167Z,5.54
2023-01-03T02:41:26.568Z,5.61
2023-01-03T02:46:41.194Z,5.58
2023-01-03T02:51:51.526Z,5.53
2023-01-03T02:57:06.324Z,5.54
2023-01-03T03:02:09.793Z,5.48
2023-01-03T03:07:22.714Z,5.57
2023-01-03T03:12:45.945Z,5.51
2023-01-03T03:17:47.120Z,5.41
2023-01-03T03:23:13.581Z,5.39
2023-01-03T03:28:43.131Z,5.42
2023-01-03T03:34:18.346Z,5.46
2023-01-03T03:39:39.675Z,5.36
2023-01-03T03:45:02.672Z,5.29
2023-01-03T03:50:22.590Z,5.36
2023-01-03T03:55:38.815Z,5.24
2023-01-03T04:00:42.722Z,5.20
2023-01-03T04:05:48.275Z,5.12
2023-01-03T04:10:49.664Z,4.98
2023-01-03T04:15:50.404Z,4.96
2023-01-03T04:20:51.216Z,4.94
2023-01-03T04:25:52.245Z,4.97
2023-01-03T04:30:52.986Z,4.88
2023-01-03T04:35:54.023Z,4.93
2023-01-03T04:40:54.856Z,4.64
2023-01-03T04:45:55.739Z,4.63
2023-01-03T04:50:59.057Z,4.53
2023-01-03T04:55:59.804Z,4.40
2023-01-03T05:01:02.828Z,4.53
2023-01-03T05:06:08.257Z,4.34
2023-01-03T05:11:09.116Z,4.30
2023-01-03T05:16:12.892Z,4.18
2023-01-03T05:21:37.895Z,4.13
2023-01-03T05:26:40.562Z,4.16
2023-01-03T05:31:41.459Z,4.09
2023-01-03T05:36:42.855Z,4.09
2023-01-03T05:42:01.551Z,4.04
2023-01-03T05:47:03.925Z,4.01
2023-01-03T05:52:04.674Z,4.15
2023-01-03T05:57:05.461Z,4.11
2023-01-03T06:02:06.387Z,3.83
2023-01-03T06:07:07.361Z,3.89
2023-01-03T06:12:08.142Z,3.87
2023-01-03T06:17:27.661Z,3.90
2023-01-03T06:22:28.465Z,3.75
2023-01-03T06:27:29.492Z,3.62
2023-01-03T06:32:30.244Z,3.60
2023-01-03T06:37:31.342Z,3.39
2023-01-03T06:42:39.444Z,3.31
2023-01-03T06:47:58.537Z,3.49
2023-01-03T06:53:11.393Z,3.64
2023-01-03T06:58:13.062Z,3.57
2023-01-03T07:03:13.915Z,3.65
2023-01-03T07:08:14.753Z,3.74
2023-01-03T07:13:34.275Z,3.74
2023-01-03T07:18:35.265Z,3.64
2023-01-03T07:23:36.570Z,3.86
2023-01-03T07:28:37.393Z,3.94
2023-01-03T07:33:38.761Z,3.85
2023-01-03T07:38:41.967Z,4.12
2023-01-03T07:43:45.747Z,4.11
2023-01-03T07:48:49.298Z,4.18
2023-01-03T07:53:52.349Z,4.30
2023-01-03T07:58:53.146Z,4.42
2023-01-03T08:03:53.993Z,4.67
2023-01-03T08:09:13.208Z,4.67
2023-01-03T08:14:14.119Z,4.75
2023-01-03T08:19:15.415Z,4.95
2023-01-03T08:24:16.273Z,5.42
2023-01-03T08:29:17.126Z,5.87
2023-01-03T08:34:27.028Z,6.30
2023-01-03T08:39:37.671Z,6.78
2023-01-03T08:44:39.747Z,7.21
2023-01-03T08:49:41.274Z,7.44
2023-01-03T08:54:43.148Z,7.27
2023-01-03T08:59:43.938Z,7.33
2023-01-03T09:04:44.763Z,7.40
2023-01-03T09:09:45.586Z,7.81
2023-01-03T09:14:46.420Z,7.81
2023-01-03T09:19:47.289Z,8.26
2023-01-03T09:24:48.050Z,8.38
2023-01-03T09:29:48.851Z,8.23
2023-01-03T09:34:49.617Z,8.53
2023-01-03T09:39:50.839Z,8.52
2023-01-03T09:44:52.849Z,8.85
2023-01-03T09:50:26.643Z,8.82
2023-01-03T09:56:00.999Z,9.11
2023-01-03T10:01:44.346Z,8.71
2023-01-03T10:07:10.195Z,7.52
2023-01-03T10:13:06.853Z,7.01
2023-01-03T10:20:08.842Z,6.80
2023-01-03T10:25:17.258Z,6.41
2023-01-03T10:30:26.836Z,6.32
2023-01-03T10:35:33.535Z,6.47
2023-01-03T10:40:48.065Z,6.48
2023-01-03T10:45:58.217Z,6.32
2023-01-03T10:50:59.173Z,6.33
2023-01-03T10:56:01.884Z,6.35
2023-01-03T11:01:24.039Z,6.28
2023-01-03T11:06:24.945Z,6.39
2023-01-03T11:11:43.674Z,6.39
2023-01-03T11:16:44.534Z,6.33
2023-01-03T11:22:41.131Z,6.36
2023-01-03T11:28:30.744Z,6.60
2023-01-03T11:40:39.062Z,6.79
2023-01-03T11:49:00.839Z,6.72
2023-01-03T11:54:11.103Z,6.89
2023-01-03T11:59:50.854Z,6.81
2023-01-03T12:07:37.490Z,6.89
2023-01-03T12:15:03.787Z,6.92
2023-01-03T12:20:23.109Z,7.42
2023-01-03T12:25:29.220Z,7.51
2023-01-03T12:30:58.277Z,7.52
2023-01-03T12:36:19.895Z,8.18
2023-01-03T12:41:54.092Z,8.57
2023-01-03T12:46:56.602Z,8.47
2023-01-03T12:51:58.693Z,8.00
2023-01-03T12:59:41.022Z,7.72
2023-01-03T13:04:43.795Z,7.47
2023-01-03T13:10:00.731Z,7.60
2023-01-03T13:15:16.703Z,7.75
2023-01-03T13:20:34.437Z,7.74
2023-01-03T13:25:39.069Z,7.74
2023-01-03T13:30:40.074Z,7.81
2023-01-03T13:36:00.070Z,7.58
2023-01-03T13:41:17.553Z,7.54
2023-01-03T13:46:26.972Z,7.62
2023-01-03T13:57:35.343Z,7.41
2023-01-03T14:03:36.894Z,7.30
2023-01-03T14:12:06.623Z,7.21
2023-01-03T14:17:21.619Z,6.99
2023-01-03T14:22:33.139Z,6.94
2023-01-03T14:27:40.493Z,6.80
2023-01-03T14:32:41.418Z,6.79
2023-01-03T14:37:45.445Z,6.74
2023-01-03T14:42:46.479Z,6.64
2023-01-03T14:47:50.579Z,6.70
2023-01-03T14:52:54.991Z,6.70
2023-01-03T14:57:57.256Z,6.63
2023-01-03T15:02:58.641Z,6.71
2023-01-03T15:08:29.319Z,6.52
2023-01-03T15:13:49.677Z,6.55
2023-01-03T15:18:50.817Z,6.38
2023-01-03T15:23:53.680Z,6.32
2023-01-03T15:29:13.487Z,6.22
2023-01-03T15:34:40.262Z,6.23
2023-01-03T15:40:04.741Z,6.15
2023-01-03T15:45:13.622Z,6.17
2023-01-03T15:50:17.939Z,6.20
2023-01-03T15:55:18.755Z,6.14
2023-01-03T16:00:22.251Z,6.07
2023-01-03T16:05:23.566Z,6.07
2023-01-03T16:10:24.440Z,6.04
2023-01-03T16:15:25.249Z,6.04
2023-01-03T16:20:32.221Z,6.07
2023-01-03T16:25:33.949Z,5.88
2023-01-03T16:30:35.843Z,5.87
2023-01-03T16:35:37.225Z,6.01
2023-01-03T16:40:37.953Z,5.97
2023-01-03T16:45:47.052Z,5.75
2023-01-03T16:50:51.776Z,5.69
2023-01-03T16:55:54.646Z,5.86
2023-01-03T17:00:56.262Z,5.95
2023-01-03T17:05:58.031Z,5.83
2023-01-03T17:10:58.846Z,5.69
2023-01-03T17:16:01.931Z,5.66
2023-01-03T17:21:49.456Z,5.53
2023-01-03T17:27:00.960Z,5.65
2023-01-03T17:32:01.703Z,5.51
2023-01-03T17:37:02.628Z,5.52
2023-01-03T17:42:15.224Z,5.40
2023-01-03T17:47:40.417Z,5.38
2023-01-03T17:52:41.421Z,5.32
2023-01-03T17:57:42.214Z,5.29
2023-01-03T18:02:43.246Z,5.18
2023-01-03T18:07:45.194Z,5.10
2023-01-03T18:12:45.956Z,5.08
2023-01-03T18:17:47.991Z,5.12
2023-01-03T18:22:49.136Z,5.12
2023-01-03T18:28:01.333Z,5.05
2023-01-03T18:33:02.074Z,4.93
2023-01-03T18:38:03.249Z,4.99
2023-01-03T18:43:19.769Z,5.01
2023-01-03T18:48:21.716Z,4.91
2023-01-03T18:53:25.167Z,4.95
2023-01-03T18:58:33.342Z,4.88
2023-01-03T19:03:37.609Z,5.18
2023-01-03T19:08:38.501Z,5.09
2023-01-03T19:13:52.268Z,5.04
2023-01-03T19:18:53.867Z,5.02
2023-01-03T19:24:02.436Z,4.87
2023-01-03T19:29:06.053Z,4.81
2023-01-03T19:34:21.275Z,4.72
2023-01-03T19:39:25.902Z,4.86
2023-01-03T19:44:27.567Z,4.82
2023-01-03T19:49:28.353Z,4.88
2023-01-03T19:54:29.175Z,5.05
2023-01-03T19:59:35.625Z,5.04
2023-01-03T20:04:36.576Z,5.16
2023-01-03T20:09:37.670Z,5.16
2023-01-03T20:14:41.233Z,5.21
2023-01-03T20:19:41.936Z,5.15
2023-01-03T20:24:43.232Z,5.17
2023-01-03T20:29:44.364Z,5.07
2023-01-03T20:34:45.864Z,5.08
2023-01-03T20:39:46.821Z,5.10
2023-01-03T20:44:48.251Z,5.02
2023-01-03T20:49:50.005Z,5.18
2023-01-03T20:54:50.760Z,5.15
2023-01-03T20:59:51.506Z,4.96
2023-01-03T21:04:52.266Z,4.89
2023-01-03T21:09:53.189Z,4.81
2023-01-03T21:14:54.060Z,5.01
2023-01-03T21:19:54.908Z,5.11
2023-01-03T21:24:57.718Z,5.22
2023-01-03T21:29:58.788Z,5.23
2023-01-03T21:34:59.526Z,5.20
2023-01-03T21:40:00.842Z,5.10
2023-01-03T21:45:01.734Z,5.32
2023-01-03T21:50:02.659Z,5.20
2023-01-03T21:55:04.391Z,5.01
2023-01-03T22:00:06.837Z,5.05
2023-01-03T22:05:08.051Z,5.17
2023-01-03T22:10:18.333Z,5.29
2023-01-03T22:15:20.037Z,5.19
2023-01-03T22:20:24.093Z,5.29
2023-01-03T22:25:24.957Z,5.23
2023-01-03T22:30:26.021Z,5.20
2023-01-03T22:35:27.046Z,5.21
2023-01-03T22:40:27.876Z,5.34
2023-01-03T22:45:28.625Z,5.40
2023-01-03T22:50:29.521Z,5.35
2023-01-03T22:55:32.376Z,5.33
2023-01-03T23:00:33.396Z,5.42
2023-01-03T23:05:34.801Z,5.41
2023-01-03T23:10:35.641Z,5.35
2023-01-03T23:15:36.393Z,5.40
2023-01-03T23:20:47.103Z,5.40
2023-01-03T23:25:47.983Z,5.48
2023-01-03T23:30:48.793Z,5.44
2023-01-03T23:35:50.317Z,5.40
2023-01-03T23:40:51.163Z,5.43
2023-01-03T23:45:51.996Z,5.40
2023-01-03T23:50:52.807Z,5.34
2023-01-03T23:55:53.832Z,5.34
